Station: Point Stuart  

  Atmospheric Gas Attenuation - ITU Rec 676-11   ----------------- dB/100km -----------------
Date Time Temp RH % AH g/m3 Dew Point Wind Direction Speed kph Gust kph Barometer mB Rainfall Since 9am 24GHz 47GHz 76GHz 122GHz 134GHz 241GHz
08/05 12:00 29.1 50 14.44 17.6 20 33 1011.1 0 31.0 30.3 53.9 142.3 150.0 520.8
08/05 11:50 28.9 52 14.86 18.1 24 30 1011.2 0 31.9 31.1 55.7 147.1 155.9 541.2
08/05 11:40 29 50 14.36 17.8 22 26 1011.3 0 30.8 30.3 53.7 141.7 149.2 518.0
08/05 11:30 28.9 54 15.43 18.7 22 35 1011.3 0 33.1 32.0 58.0 153.2 163.4 567.4
08/05 11:20 28.6 53 14.9 18.1 26 32 1011.5 0 32.0 31.3 56.1 148.1 157.0 545.2
08/05 11:10 28.4 54 15.01 18.2 19 24 1011.5 0 32.2 31.5 56.7 149.7 158.9 551.7
08/05 11:00 28.2 52 14.3 17.4 20 32 1011.6 0 30.8 30.4 54.0 142.5 150.0 520.6
08/05 10:50 27.6 57 15.16 18.3 15 19 1011.8 0 32.6 32.1 57.9 152.9 162.6 564.5
08/05 10:40 27 60 15.44 18.6 17 24 1011.9 0 33.3 32.8 59.5 157.2 167.7 582.1
08/05 10:30 26.6 59 14.85 17.9 19 24 1012 0 32.0 31.9 57.4 151.5 160.5 557.2
08/05 10:20 26.3 60 14.85 17.9 19 22 1012.1 0 32.1 32.0 57.6 152.1 161.2 559.4
08/05 10:10 26.1 59 14.44 17.5 19 22 1012.2 0 31.2 31.4 56.0 147.9 156.1 541.5
08/05 10:00 25.6 60 14.28 17.3 20 28 1012.3 0 30.9 31.4 55.7 147.1 154.9 537.5
08/05 09:50 25.5 60 14.2 17.2 19 20 1012.3 0 30.8 31.3 55.5 146.5 154.0 534.4
08/05 09:40 25.2 63 14.67 17.7 17 20 1012.3 0 31.8 32.2 57.7 152.2 161.0 558.8
08/05 09:30 24.8 61 13.88 16.8 20 28 1012.3 0 30.1 31.0 54.7 144.3 151.1 524.2
08/05 09:20 24.8 63 14.34 17.3 19 22 1012.3 0 31.1 31.7 56.6 149.3 157.4 545.9
08/05 09:10 24.7 62 14.03 16.9 20 26 1012.3 0 30.5 31.3 55.4 146.1 153.3 531.9
08/05 09:00 24.2 65 14.3 17.4 17 20 1012.2 0 31.1 31.9 56.8 150.0 158.0 548.2
08/05 08:50 24.1 66 14.44 17.4 17 22 1012.2 0 31.4 32.2 57.5 151.8 160.2 555.6
08/05 08:40 23.9 68 14.71 17.6 17 19 1012.1 0 32.0 32.7 58.8 155.2 164.3 570.1
08/05 08:30 23.4 66 13.88 16.7 15 20 1012.1 0 30.2 31.5 55.6 146.8 153.9 533.6
08/05 08:20 23 68 13.98 16.8 17 17 1012.1 0 30.5 31.8 56.3 148.7 156.1 541.2
08/05 08:10 22.8 68 13.82 16.6 15 17 1012 0 30.2 31.6 55.8 147.3 154.2 534.8
08/05 08:00 22.4 68 13.5 16.2 17 24 1012 0 29.5 31.2 54.7 144.4 150.6 522.1
08/05 07:50 22.1 69 13.47 16.1 15 19 1011.9 0 29.5 31.2 54.8 144.7 150.8 522.6
08/05 07:40 21.8 71 13.62 16.3 15 19 1011.9 0 29.8 31.6 55.7 146.9 153.5 531.9
08/05 07:30 21.6 73 13.84 16.6 17 20 1011.7 0 30.3 32.0 56.7 149.8 156.9 544.0
08/05 07:20 21.3 73 13.61 16.3 13 17 1011.6 0 29.8 31.8 56.0 147.7 154.3 534.8
08/05 07:10 21.1 73 13.45 16.1 17 19 1011.6 0 29.5 31.6 55.4 146.3 152.5 528.3
08/05 07:00 21.1 73 13.45 16.1 15 20 1011.5 0 29.5 31.6 55.4 146.2 152.4 528.3
08/05 06:50 21.1 74 13.63 16.3 17 19 1011.5 0 29.9 31.9 56.2 148.3 155.0 537.1
08/05 06:40 21.2 73 13.53 16.2 17 19 1011.4 0 29.7 31.6 55.7 147.0 153.4 531.5
08/05 06:30 21.2 74 13.71 16.4 15 19 1011.4 0 30.1 32.0 56.5 149.0 155.9 540.3
08/05 06:20 21.3 74 13.79 16.5 15 17 1011.3 0 30.2 32.1 56.7 149.7 156.8 543.5
08/05 06:10 21.3 72 13.42 16 17 20 1011.4 0 29.4 31.4 55.2 145.5 151.6 525.4
08/05 06:00 21.2 75 13.9 16.6 15 19 1011.3 0 30.5 32.3 57.3 151.2 158.6 549.6
08/05 05:50 21.3 75 13.98 16.7 15 17 1011.3 0 30.6 32.4 57.6 151.9 159.5 552.9
08/05 05:40 21.2 75 13.9 16.6 13 15 1011.3 0 30.5 32.3 57.3 151.2 158.6 549.6
08/05 05:30 21 77 14.1 16.8 11 15 1011.2 0 30.9 32.7 58.3 153.9 161.8 561.0
08/05 05:20 21 78 14.29 17 9 11 1011.2 0 31.3 33.0 59.1 156.1 164.5 570.4
08/05 05:10 21 78 14.29 17 11 11 1011.2 0 31.3 33.0 59.1 156.1 164.5 570.4
08/05 05:00 21.2 76 14.08 16.8 13 17 1011 0 30.8 32.6 58.0 153.2 161.1 558.4
08/05 04:50 21.5 74 13.95 16.7 13 13 1010.9 0 30.5 32.2 57.3 151.1 158.6 549.8
08/05 04:40 21.6 74 14.03 16.8 13 15 1010.8 0 30.7 32.3 57.5 151.8 159.5 553.0
08/05 04:30 21.6 74 14.03 16.8 13 17 1010.7 0 30.7 32.3 57.5 151.8 159.5 552.9
08/05 04:20 21.7 73 13.92 16.6 15 17 1010.7 0 30.5 32.1 57.0 150.4 157.7 546.8
08/05 04:10 21.8 74 14.2 17 13 17 1010.8 0 31.0 32.6 58.1 153.4 161.5 559.9
08/05 04:00 21.9 74 14.28 17.1 13 19 1010.8 0 31.2 32.7 58.4 154.1 162.4 563.1
08/05 03:50 22 73 14.17 16.9 15 17 1010.8 0 31.0 32.4 57.8 152.6 160.6 557.0
08/05 03:40 22 73 14.17 16.9 13 17 1010.9 0 31.0 32.4 57.8 152.7 160.6 557.0
08/05 03:30 22.2 72 14.13 16.9 15 19 1010.9 0 30.9 32.3 57.5 151.8 159.7 553.6
08/05 03:20 22.3 71 14.02 16.8 15 17 1010.8 0 30.6 32.1 57.0 150.3 157.9 547.5
08/05 03:10 22.5 69 13.78 16.5 17 19 1010.9 0 30.1 31.6 55.8 147.3 154.2 534.5
08/05 03:00 22.7 69 13.94 16.7 15 20 1010.9 0 30.4 31.8 56.3 148.7 156.0 540.8
08/05 02:50 22.7 69 13.94 16.7 15 19 1010.9 0 30.4 31.8 56.3 148.7 156.0 540.8
08/05 02:40 22.7 70 14.14 16.9 17 20 1011.1 0 30.9 32.1 57.2 151.0 158.8 550.6
08/05 02:30 22.8 68 13.82 16.6 15 19 1011.2 0 30.2 31.6 55.8 147.2 154.1 534.5
08/05 02:20 23 66 13.56 16.3 15 17 1011.3 0 29.6 31.0 54.5 143.9 150.2 520.7
08/05 02:10 23.1 67 13.85 16.6 15 17 1011.4 0 30.2 31.5 55.7 147.0 154.0 533.9
08/05 02:00 23 67 13.77 16.5 13 19 1011.5 0 30.0 31.4 55.4 146.3 153.1 530.8
08/05 01:50 23.1 67 13.85 16.6 15 17 1011.5 0 30.2 31.5 55.7 147.0 154.0 534.0
08/05 01:40 23.2 66 13.72 16.5 13 15 1011.6 0 29.9 31.3 55.1 145.4 152.0 527.1
08/05 01:30 23.4 66 13.88 16.7 15 19 1011.7 0 30.2 31.5 55.6 146.8 153.8 533.4
08/05 01:20 23.5 65 13.75 16.5 15 17 1011.7 0 30.0 31.2 55.0 145.2 151.8 526.5
08/05 01:10 23.7 63 13.47 16.2 13 15 1011.8 0 29.4 30.7 53.7 141.7 147.7 512.0
08/05 01:00 23.8 63 13.55 16.3 17 20 1011.8 0 29.5 30.8 54.0 142.4 148.6 515.1
08/05 00:50 23.8 63 13.55 16.3 17 19 1011.8 0 29.5 30.8 54.0 142.4 148.6 515.1
08/05 00:40 24 62 13.49 16.3 19 20 1011.9 0 29.4 30.6 53.6 141.4 147.4 511.0
08/05 00:30 24.1 61 13.35 16.1 17 20 1012 0 29.1 30.3 53.0 139.7 145.3 503.8
08/05 00:20 24.1 62 13.57 16.4 17 20 1012 0 29.5 30.7 53.9 142.1 148.3 514.1
08/05 00:10 24.1 62 13.57 16.4 17 19 1012.2 0 29.5 30.7 53.9 142.1 148.3 514.2
08/05 00:00 24.2 62 13.64 16.5 15 20 1012.3 0 29.7 30.8 54.1 142.7 149.1 516.9
07/05 23:50 24.3 61 13.5 16.3 15 20 1012.3 0 29.4 30.5 53.4 141.0 147.0 509.6
07/05 23:40 24.4 60 13.35 16.1 17 20 1012.2 0 29.1 30.2 52.8 139.2 144.8 502.0
07/05 23:30 24.6 59 13.28 16.1 17 22 1012.2 0 28.9 30.1 52.3 138.1 143.5 497.4
07/05 23:20 24.7 58 13.13 15.9 15 17 1012.3 0 28.6 29.8 51.7 136.3 141.3 489.9
07/05 23:10 24.9 58 13.28 16.1 17 20 1012.3 0 28.9 30.0 52.2 137.6 142.9 495.6
07/05 23:00 25.1 56 12.96 15.7 17 22 1012.3 0 28.2 29.4 50.7 133.8 138.4 479.7
07/05 22:50 25.3 55 12.88 15.6 17 20 1012.4 0 28.0 29.2 50.3 132.6 137.0 474.9
07/05 22:40 25.4 55 12.95 15.7 19 20 1012.3 0 28.1 29.3 50.5 133.2 137.7 477.4
07/05 22:30 25.6 55 13.09 15.9 19 24 1012.3 0 28.4 29.4 50.9 134.3 139.2 482.5
07/05 22:20 25.4 56 13.18 16 15 19 1012.3 0 28.6 29.6 51.4 135.6 140.7 487.9
07/05 22:10 24.9 62 14.19 17.1 15 17 1012.4 0 30.8 31.5 55.9 147.5 155.1 538.1
07/05 22:00 24.4 71 15.8 18.8 13 15 1012.3 0 34.2 34.4 63.1 166.7 178.6 620.0
07/05 21:50 24.2 74 16.28 19.3 11 13 1012.3 0 35.3 35.3 65.4 172.8 186.0 645.8
07/05 21:40 24.3 75 16.6 19.6 11 13 1012.3 0 35.9 35.9 66.7 176.4 190.5 661.2
07/05 21:30 24.5 75 16.78 19.8 11 13 1012.2 0 36.3 36.1 67.4 178.1 192.6 668.6
07/05 21:20 24.7 74 16.75 19.8 11 13 1012.2 0 36.2 36.0 67.1 177.2 191.6 665.3
07/05 21:10 24.7 73 16.52 19.5 11 13 1012.1 0 35.7 35.6 66.0 174.5 188.3 653.6
07/05 21:00 24.9 71 16.25 19.3 9 13 1012.1 0 35.1 35.0 64.7 170.9 183.9 638.3
07/05 20:50 25 71 16.34 19.4 9 11 1011.9 0 35.3 35.1 65.0 171.7 184.9 641.9
07/05 20:40 25.2 71 16.53 19.6 11 11 1011.8 0 35.7 35.4 65.6 173.4 187.1 649.7
07/05 20:30 25.2 72 16.76 19.8 11 13 1011.6 0 36.2 35.8 66.6 176.1 190.4 661.2
07/05 20:18 25.4 73 17.19 20.2 11 11 1011.6 0 37.1 36.4 68.4 180.8 196.2 681.3
07/05 20:10 25.4 75 17.66 20.6 9 11 1011.5 0 38.1 37.3 70.5 186.4 203.1 705.4
07/05 20:00 25.4 77 18.13 21.1 9 11 1011.5 0 39.1 38.2 72.6 192.1 210.1 729.7
07/05 19:50 25.5 73 17.28 20.3 9 9 1011.4 0 37.3 36.6 68.7 181.6 197.2 684.9
07/05 19:40 25.6 75 17.86 20.8 9 9 1011.3 0 38.5 37.6 71.2 188.3 205.5 713.7
07/05 19:30 25.6 76 18.09 21.1 7 9 1011.3 0 39.0 38.0 72.2 191.1 208.9 725.6

Last Refresh: 08-May-2026 12:09:33

Bureau of Meteorology